createdAt,value
2018-11-23T00:01:59.279Z,62.80
2018-11-23T00:04:27.976Z,62.80
2018-11-23T00:06:56.857Z,62.90
2018-11-23T00:09:25.614Z,62.90
2018-11-23T00:11:54.225Z,62.80
2018-11-23T00:14:23.116Z,62.80
2018-11-23T00:16:51.696Z,62.90
2018-11-23T00:19:40.694Z,62.90
2018-11-23T00:42:48.617Z,62.90
2018-11-23T00:45:17.576Z,63.10
2018-11-23T00:47:47.111Z,63.00
2018-11-23T00:50:16.977Z,63.10
2018-11-23T00:52:46.233Z,63.10
2018-11-23T00:55:16.421Z,63.20
2018-11-23T00:57:45.331Z,63.20
2018-11-23T01:00:16.525Z,63.20
2018-11-23T01:02:45.545Z,63.20
2018-11-23T01:05:16.461Z,63.20
2018-11-23T01:07:45.641Z,63.30
2018-11-23T01:10:15.659Z,63.30
2018-11-23T01:12:45.558Z,63.30
2018-11-23T01:15:14.553Z,63.30
2018-11-23T01:17:43.410Z,63.40
2018-11-23T01:20:14.664Z,63.40
2018-11-23T01:22:49.769Z,63.40
2018-11-23T01:25:19.742Z,63.40
2018-11-23T02:47:10.742Z,63.50
2018-11-23T07:55:03.899Z,66.20
2018-11-23T08:03:51.576Z,66.20
2018-11-23T08:06:31.150Z,66.00
2018-11-23T08:09:19.192Z,66.20
2018-11-23T08:17:34.260Z,66.10
2018-11-23T08:33:56.646Z,66.00
2018-11-23T08:42:38.462Z,65.80
2018-11-23T08:45:34.940Z,65.50
2018-11-23T08:48:18.022Z,65.60
2018-11-23T08:56:00.938Z,65.90
2018-11-23T08:58:42.182Z,65.80
2018-11-23T09:01:32.818Z,65.90
2018-11-23T09:06:56.738Z,65.70
2018-11-23T09:09:44.423Z,65.80
2018-11-23T09:12:25.993Z,65.50
2018-11-23T09:17:55.666Z,65.40
2018-11-23T09:23:20.800Z,65.30
2018-11-23T09:26:24.844Z,65.30
2018-11-23T09:29:07.605Z,65.10
2018-11-23T09:31:36.636Z,65.30
2018-11-23T09:34:40.869Z,65.10
2018-11-23T09:37:21.622Z,64.90
2018-11-23T09:40:11.240Z,64.70
2018-11-23T09:45:38.482Z,64.10
2018-11-23T09:48:18.382Z,63.70
2018-11-23T09:50:59.357Z,63.50
2018-11-23T09:53:34.292Z,63.60
2018-11-23T09:56:20.288Z,63.50
2018-11-23T09:59:01.477Z,63.30
2018-11-23T10:01:39.165Z,63.20
2018-11-23T10:04:17.026Z,63.30
2018-11-23T10:06:51.594Z,63.10
2018-11-23T10:09:25.989Z,62.70
2018-11-23T10:12:04.509Z,62.80
2018-11-23T10:17:35.001Z,62.40
2018-11-23T10:20:33.156Z,62.20
2018-11-23T10:23:09.776Z,61.90
2018-11-23T10:25:38.894Z,62.10
2018-11-23T10:28:10.051Z,61.80
2018-11-23T10:41:38.179Z,61.10
2018-11-23T10:47:12.186Z,61.30
2018-11-23T10:52:37.572Z,60.90
2018-11-23T10:55:21.298Z,60.60
2018-11-23T10:58:00.860Z,61.10
2018-11-23T11:00:39.602Z,60.30
2018-11-23T11:03:16.692Z,60.30
2018-11-23T11:05:54.195Z,60.40
2018-11-23T11:08:36.698Z,60.20
2018-11-23T11:11:09.909Z,60.20
2018-11-23T11:13:52.234Z,60.00
2018-11-23T11:16:28.738Z,60.00
2018-11-23T11:19:05.442Z,60.00
2018-11-23T11:21:39.335Z,60.30
2018-11-23T11:24:08.014Z,60.00
2018-11-23T11:26:36.518Z,59.20
2018-11-23T11:29:05.318Z,59.70
2018-11-23T11:31:33.798Z,60.10
2018-11-23T11:34:02.335Z,60.40
2018-11-23T11:36:30.850Z,59.80
2018-11-23T11:38:59.285Z,58.90
2018-11-23T11:41:27.910Z,58.00
2018-11-23T11:43:56.430Z,57.10
2018-11-23T11:46:24.954Z,56.20
2018-11-23T11:48:53.561Z,55.70
2018-11-23T11:51:31.878Z,55.00
2018-11-23T11:54:01.072Z,54.40
2018-11-23T11:56:30.482Z,53.60
2018-11-23T11:58:59.852Z,52.10
2018-11-23T12:01:29.482Z,51.30
2018-11-23T12:04:05.776Z,50.00
2018-11-23T12:06:46.680Z,50.10
2018-11-23T12:09:32.708Z,48.90
2018-11-23T12:12:03.594Z,47.50
2018-11-23T12:14:36.059Z,46.90
2018-11-23T12:17:08.790Z,45.90
2018-11-23T12:19:40.036Z,44.60
2018-11-23T12:22:27.442Z,43.80
2018-11-23T12:25:05.098Z,43.80
2018-11-23T12:27:40.313Z,43.50
2018-11-23T12:30:20.712Z,43.30
2018-11-23T12:32:56.238Z,43.20
2018-11-23T12:35:26.282Z,42.50
2018-11-23T12:38:07.131Z,42.40
2018-11-23T12:40:44.288Z,41.80
2018-11-23T12:46:12.639Z,41.60
2018-11-23T12:48:50.094Z,41.40
2018-11-23T12:51:26.903Z,41.40
2018-11-23T12:54:06.470Z,41.40
2018-11-23T12:59:23.953Z,41.10
2018-11-23T13:01:52.504Z,40.60
2018-11-23T13:04:22.762Z,40.10
2018-11-23T13:06:56.320Z,39.90
2018-11-23T13:09:27.955Z,39.80
2018-11-23T13:12:02.928Z,39.80
2018-11-23T13:17:25.077Z,41.20
2018-11-23T13:19:58.412Z,40.70
2018-11-23T13:22:29.322Z,40.60
2018-11-23T13:25:02.808Z,40.50
2018-11-23T13:27:59.080Z,40.30
2018-11-23T13:42:27.400Z,41.70
2018-11-23T13:44:58.597Z,42.60
2018-11-23T13:47:28.688Z,43.10
2018-11-23T13:49:58.766Z,43.80
2018-11-23T13:52:28.024Z,44.40
2018-11-23T13:54:56.922Z,44.90
2018-11-23T13:57:26.362Z,45.40
2018-11-23T13:59:56.261Z,45.80
2018-11-23T14:02:29.833Z,46.20
2018-11-23T14:04:58.417Z,46.70
2018-11-23T14:07:27.029Z,47.10
2018-11-23T14:10:02.340Z,47.50
2018-11-23T14:12:31.590Z,48.70
2018-11-23T14:15:14.623Z,49.00
2018-11-23T14:17:44.824Z,49.30
2018-11-23T14:20:14.664Z,49.50
2018-11-23T14:22:44.123Z,49.90
2018-11-23T14:25:15.704Z,50.10
2018-11-23T14:27:50.142Z,50.30
2018-11-23T14:30:40.833Z,50.50
2018-11-23T14:33:10.154Z,50.70
2018-11-23T14:35:43.677Z,50.80
2018-11-23T14:38:12.750Z,51.00
2018-11-23T14:40:41.283Z,51.30
2018-11-23T14:43:10.738Z,51.50
2018-11-23T14:45:43.850Z,51.70
2018-11-23T14:48:15.262Z,52.00
2018-11-23T14:50:49.762Z,52.60
2018-11-23T14:53:18.841Z,52.10
2018-11-23T14:55:55.293Z,52.50
2018-11-23T14:58:24.973Z,52.40
2018-11-23T15:00:54.638Z,52.60
2018-11-23T15:03:28.140Z,52.80
2018-11-23T15:05:58.804Z,52.70
2018-11-23T15:08:27.887Z,53.00
2018-11-23T15:10:56.750Z,53.10
2018-11-23T15:13:26.517Z,53.30
2018-11-23T15:15:55.201Z,53.50
2018-11-23T15:18:24.957Z,53.60
2018-11-23T15:20:53.645Z,53.60
2018-11-23T15:23:22.339Z,53.80
2018-11-23T15:25:52.369Z,54.00
2018-11-23T15:28:21.431Z,54.00
2018-11-23T15:30:53.463Z,54.20
2018-11-23T15:33:22.417Z,54.30
2018-11-23T15:35:51.615Z,54.40
2018-11-23T15:38:37.258Z,54.50
2018-11-23T15:41:06.628Z,54.60
2018-11-23T15:43:36.333Z,54.60
2018-11-23T15:46:10.987Z,54.60
2018-11-23T15:48:40.107Z,54.70
2018-11-23T15:51:10.011Z,54.80
2018-11-23T15:53:38.979Z,54.90
2018-11-23T15:56:08.077Z,55.00
2018-11-23T15:58:37.471Z,55.20
2018-11-23T16:01:06.107Z,55.30
2018-11-23T16:03:35.493Z,56.00
2018-11-23T16:06:22.192Z,55.50
2018-11-23T16:08:53.395Z,55.50
2018-11-23T16:11:27.923Z,55.50
2018-11-23T16:14:01.634Z,55.60
2018-11-23T16:16:30.279Z,55.70
2018-11-23T16:18:59.737Z,55.90
2018-11-23T16:21:29.207Z,56.10
2018-11-23T16:23:59.049Z,56.10
2018-11-23T16:26:34.539Z,56.20
2018-11-23T16:29:03.881Z,56.20
2018-11-23T16:31:34.783Z,56.20
2018-11-23T16:34:03.593Z,56.30
2018-11-23T16:36:32.723Z,56.40
2018-11-23T16:39:08.864Z,56.50
2018-11-23T16:41:37.407Z,56.50
2018-11-23T16:44:09.058Z,56.60
2018-11-23T16:46:41.821Z,56.70
2018-11-23T16:49:11.163Z,56.80
2018-11-23T16:51:40.754Z,56.90
2018-11-23T16:54:14.527Z,57.00
2018-11-23T16:56:45.667Z,57.00
2018-11-23T16:59:15.113Z,57.00
2018-11-23T17:01:51.517Z,57.20
2018-11-23T17:04:21.693Z,57.20
2018-11-23T17:06:52.494Z,57.30
2018-11-23T17:09:22.961Z,57.10
2018-11-23T17:11:51.961Z,57.40
2018-11-23T17:14:23.285Z,57.40
2018-11-23T17:16:54.557Z,57.40
2018-11-23T17:19:23.890Z,57.50
2018-11-23T17:21:53.543Z,57.50
2018-11-23T17:24:22.751Z,57.50
2018-11-23T17:26:52.120Z,57.50
2018-11-23T17:29:24.679Z,57.50
2018-11-23T17:31:53.840Z,57.60
2018-11-23T17:34:22.755Z,57.60
2018-11-23T17:36:52.167Z,57.60
2018-11-23T17:39:21.213Z,57.80
2018-11-23T17:41:54.201Z,57.90
2018-11-23T17:44:23.365Z,57.80
2018-11-23T17:46:52.519Z,57.90
2018-11-23T17:49:22.702Z,57.90
2018-11-23T17:51:52.085Z,58.00
2018-11-23T17:54:21.369Z,58.10
2018-11-23T17:56:55.385Z,58.10
2018-11-23T17:59:25.737Z,58.20
2018-11-23T18:01:54.979Z,58.30
2018-11-23T18:04:33.955Z,58.30
2018-11-23T18:07:10.554Z,58.60
2018-11-23T18:09:48.843Z,58.70
2018-11-23T18:12:19.245Z,58.70
2018-11-23T18:14:49.001Z,58.60
2018-11-23T18:17:27.255Z,58.80
2018-11-23T18:19:56.818Z,58.80
2018-11-23T18:22:30.567Z,58.70
2018-11-23T18:25:05.172Z,59.20
2018-11-23T18:27:44.995Z,58.80
2018-11-23T18:30:32.118Z,58.90
2018-11-23T18:33:07.979Z,58.90
2018-11-23T18:35:36.810Z,59.00
2018-11-23T18:38:06.399Z,59.20
2018-11-23T18:40:39.342Z,59.30
2018-11-23T18:43:25.585Z,59.30
2018-11-23T18:45:55.065Z,59.40
2018-11-23T18:48:33.503Z,59.40
2018-11-23T18:53:50.629Z,59.20
2018-11-23T18:56:22.845Z,59.20
2018-11-23T18:59:00.588Z,59.30
2018-11-23T19:01:35.765Z,59.50
2018-11-23T19:07:08.633Z,59.70
2018-11-23T19:09:53.140Z,59.40
2018-11-23T19:12:25.090Z,59.50
2018-11-23T19:15:11.489Z,59.50
2018-11-23T19:17:41.819Z,59.50
2018-11-23T19:20:15.029Z,59.60
2018-11-23T19:22:48.721Z,59.70
2018-11-23T19:25:20.218Z,59.70
2018-11-23T19:27:53.707Z,59.80
2018-11-23T19:30:29.863Z,59.90
2018-11-23T19:33:00.251Z,60.10
2018-11-23T19:35:42.907Z,59.90
2018-11-23T19:41:04.515Z,60.00
2018-11-23T19:43:35.142Z,60.20
2018-11-23T19:46:07.413Z,60.30
2018-11-23T19:48:40.630Z,60.40
2018-11-23T19:51:10.184Z,60.50
2018-11-23T19:53:53.525Z,60.60
2018-11-23T19:56:24.183Z,60.60
2018-11-23T19:58:59.031Z,60.60
2018-11-23T20:01:34.399Z,60.60
2018-11-23T20:04:05.513Z,60.50
2018-11-23T20:06:36.118Z,60.50
2018-11-23T20:09:05.405Z,60.60
2018-11-23T20:11:35.099Z,60.80
2018-11-23T20:14:04.447Z,60.70
2018-11-23T20:16:41.264Z,60.80
2018-11-23T20:19:10.610Z,60.70
2018-11-23T20:21:39.981Z,60.70
2018-11-23T20:24:10.747Z,60.80
2018-11-23T20:26:39.850Z,60.90
2018-11-23T20:29:11.300Z,60.90
2018-11-23T20:31:41.289Z,60.80
2018-11-23T20:34:11.170Z,60.70
2018-11-23T20:36:40.772Z,61.10
2018-11-23T20:39:13.385Z,60.70
2018-11-23T20:41:46.183Z,60.80
2018-11-23T20:44:16.762Z,60.70
2018-11-23T20:46:48.182Z,60.80
2018-11-23T20:49:17.649Z,60.80
2018-11-23T20:51:46.645Z,60.90
2018-11-23T20:54:15.912Z,61.60
2018-11-23T20:56:45.241Z,61.70
2018-11-23T20:59:15.125Z,60.80
2018-11-23T21:01:44.179Z,60.70
2018-11-23T21:04:14.303Z,61.50
2018-11-23T21:06:43.147Z,60.80
2018-11-23T21:09:30.900Z,60.80
2018-11-23T21:11:56.470Z,60.80
2018-11-23T21:14:35.643Z,60.90
2018-11-23T21:17:04.163Z,61.00
2018-11-23T21:19:34.429Z,61.10
2018-11-23T21:25:08.495Z,61.30
2018-11-23T21:27:39.645Z,61.20
2018-11-23T21:30:17.069Z,61.30
2018-11-23T21:32:52.674Z,61.40
2018-11-23T21:35:33.167Z,61.50
2018-11-23T21:38:02.555Z,61.50
2018-11-23T21:40:33.423Z,61.60
2018-11-23T21:43:24.687Z,61.60
2018-11-23T21:45:58.069Z,61.50
2018-11-23T21:48:45.353Z,61.70
2018-11-23T21:51:14.799Z,62.40
2018-11-23T21:53:54.037Z,61.70
2018-11-23T21:56:23.122Z,61.60
2018-11-23T21:58:51.562Z,61.80
2018-11-23T22:01:27.668Z,61.90
2018-11-23T22:03:56.858Z,62.60
2018-11-23T22:06:26.147Z,61.90
2018-11-23T22:08:55.498Z,61.90
2018-11-23T22:11:25.194Z,62.10
2018-11-23T22:13:54.151Z,62.10
2018-11-23T22:16:22.694Z,62.30
2018-11-23T22:18:53.810Z,62.10
2018-11-23T22:21:22.628Z,62.10
2018-11-23T22:23:51.744Z,62.30
2018-11-23T22:26:20.221Z,62.40
2018-11-23T22:28:49.010Z,62.50
2018-11-23T22:31:18.908Z,62.60
2018-11-23T22:33:47.833Z,62.70
2018-11-23T22:36:20.925Z,62.70
2018-11-23T22:38:50.242Z,63.50
2018-11-23T22:41:19.637Z,62.80
2018-11-23T22:43:48.889Z,62.80
2018-11-23T22:46:17.829Z,62.80
2018-11-23T22:48:47.218Z,62.80
2018-11-23T22:51:16.368Z,62.90
2018-11-23T22:53:45.370Z,63.00
2018-11-23T22:56:14.406Z,63.10
2018-11-23T22:58:43.533Z,63.20
2018-11-23T23:01:13.197Z,63.20
2018-11-23T23:03:42.660Z,63.30
2018-11-23T23:06:12.345Z,63.40
2018-11-23T23:08:55.398Z,63.40
2018-11-23T23:11:24.008Z,63.30
2018-11-23T23:13:53.376Z,63.40
2018-11-23T23:16:22.394Z,63.40
2018-11-23T23:18:51.642Z,63.40
2018-11-23T23:21:20.759Z,63.40
2018-11-23T23:23:50.400Z,63.40
2018-11-23T23:26:31.914Z,63.60
2018-11-23T23:32:15.390Z,63.80
2018-11-23T23:34:44.420Z,63.80
2018-11-23T23:37:13.326Z,63.70
2018-11-23T23:39:42.506Z,63.80
2018-11-23T23:42:11.480Z,63.80
2018-11-23T23:44:44.462Z,63.80
2018-11-23T23:47:13.858Z,63.70
2018-11-23T23:49:45.272Z,63.90
2018-11-23T23:52:13.730Z,64.00
2018-11-23T23:54:42.212Z,64.00
2018-11-23T23:57:10.690Z,64.00
2018-11-23T23:59:55.864Z,64.00
